Data for 04/22/2010

Time Sea-Level Adjusted Pressure Absolute Pressure Temperature Relative Humidity Dew Point   
(mb) (inHg) (mb) (inHg) (C) (F) (%) (C) (F)
00:05 1006 29.71 835 24.66 11.9 53.5 61 4.8 40.6
00:10 1006 29.71 835 24.66 11.8 53.2 62 4.8 40.6
00:15 1006 29.71 835 24.66 11.7 53 63 4.8 40.7
00:20 1006 29.71 835 24.66 11.5 52.8 63 4.9 40.8
00:25 1005 29.68 835 24.66 11.5 52.7 64 4.9 40.8
00:30 1005 29.68 835 24.66 11.5 52.7 64 5 40.9
00:35 1005 29.68 835 24.66 11.4 52.5 64 5 40.9
00:40 1005 29.68 835 24.66 11.3 52.4 65 5 40.9
00:45 1005 29.68 835 24.66 11.2 52.2 65 5 41.1
00:50 1005 29.68 835 24.66 11.2 52.2 66 5.1 41.1
00:55 1005 29.68 835 24.66 11.2 52.2 66 5.1 41.2
01:00 1005 29.68 835 24.66 11.2 52.1 66 5.2 41.3
01:05 1005 29.68 835 24.66 11.3 52.3 66 5.1 41.2
01:10 1006 29.71 835 24.66 11.3 52.3 66 5.2 41.4
01:15 1005 29.68 835 24.66 11.3 52.3 66 5.2 41.4
01:20 1005 29.68 835 24.66 11.2 52.2 66 5.2 41.4
01:25 1005 29.68 835 24.66 11.1 52 67 5.2 41.4
01:30 1005 29.68 835 24.66 11.1 51.9 67 5.2 41.4
01:35 1006 29.71 835 24.66 11.1 51.9 67 5.2 41.4
01:40 1006 29.71 835 24.66 11.1 51.9 67 5.3 41.5
01:45 1006 29.71 835 24.66 11.1 51.9 67 5.2 41.4
01:50 1006 29.71 835 24.66 11.1 51.9 67 5.3 41.5
01:55 1006 29.71 835 24.66 11.1 51.9 67 5.3 41.5
02:00 1006 29.71 835 24.66 11.1 51.9 67 5.2 41.4
02:05 1006 29.71 835 24.66 11.1 51.9 67 5.3 41.5
02:10 1006 29.71 835 24.66 11.1 51.9 67 5.3 41.5
02:15 1006 29.71 835 24.66 11 51.8 67 5.2 41.4
02:20 1006 29.71 835 24.66 11 51.7 68 5.2 41.4
02:25 1006 29.71 835 24.66 10.9 51.7 68 5.2 41.4
02:30 1006 29.71 835 24.66 10.8 51.5 68 5.2 41.4
02:35 1006 29.71 835 24.66 10.8 51.5 68 5.2 41.4
02:40 1006 29.71 835 24.66 10.7 51.3 68 5.2 41.3
02:45 1006 29.71 835 24.66 10.7 51.2 69 5.2 41.3
02:50 1006 29.71 835 24.66 10.6 51.1 69 5.1 41.2
02:55 1006 29.71 835 24.66 10.5 51 69 5.2 41.4
03:00 1006 29.71 835 24.66 10.4 50.8 70 5.1 41.3
03:05 1006 29.71 835 24.66 10.4 50.7 70 5.2 41.3
03:10 1006 29.71 835 24.66 10.3 50.6 70 5.1 41.2
03:15 1006 29.71 835 24.66 10.3 50.5 70 5.1 41.2
03:20 1006 29.71 835 24.66 10.1 50.3 71 5.1 41.2
03:25 1006 29.71 835 24.66 10.1 50.2 71 5.1 41.2
03:30 1006 29.71 835 24.66 10.2 50.3 71 5.1 41.2
03:35 1006 29.71 835 24.66 10.2 50.3 71 5.2 41.3
03:40 1006 29.71 835 24.66 10.1 50.2 71 5.2 41.3
03:45 1006 29.71 835 24.66 9.9 49.8 72 5.1 41.2
03:50 1006 29.71 835 24.66 9.5 49.1 73 4.9 40.8
03:55 1006 29.71 835 24.66 9 48.2 75 4.8 40.6
04:00 1006 29.71 835 24.66 8.8 47.8 75 4.7 40.4
04:05 1006 29.71 835 24.66 9 48.1 75 4.8 40.6
04:10 1006 29.71 835 24.66 8.9 48.1 76 4.9 40.8
04:15 1006 29.71 835 24.66 8.8 47.9 76 4.9 40.7
04:20 1006 29.71 835 24.66 8.8 47.8 76 4.9 40.7
04:25 1006 29.71 835 24.66 8.8 47.9 76 4.9 40.8
04:30 1006 29.71 835 24.66 8.7 47.6 77 4.8 40.7
04:35 1006 29.71 835 24.66 8.7 47.6 77 4.8 40.6
04:40 1005 29.68 835 24.66 8.8 47.9 76 4.8 40.7
04:45 1005 29.68 835 24.66 8.8 47.8 77 4.9 40.8
04:50 1005 29.68 835 24.66 8.8 47.9 76 4.9 40.8
04:55 1005 29.68 835 24.66 8.9 48.1 76 5 41
05:00 1005 29.68 835 24.66 8.8 47.9 77 4.9 40.9
05:05 1006 29.71 835 24.66 8.8 47.8 76 4.9 40.8
05:10 1006 29.71 835 24.66 8.8 47.8 77 4.9 40.9
05:15 1006 29.71 835 24.66 8.6 47.5 77 4.8 40.7
05:20 1006 29.71 835 24.66 8.7 47.6 77 4.9 40.7
05:25 1006 29.71 835 24.66 8.8 47.8 76 4.8 40.7
05:30 1006 29.71 835 24.66 8.9 47.9 76 4.9 40.8
05:35 1006 29.71 835 24.66 8.9 48 76 4.9 40.8
05:40 1006 29.71 835 24.66 8.8 47.8 77 4.9 40.8
05:45 1006 29.71 835 24.66 8.6 47.4 77 4.8 40.6
05:50 1006 29.71 835 24.66 8.5 47.3 77 4.8 40.6
05:55 1006 29.71 835 24.66 8.4 47.1 78 4.7 40.5
06:00 1006 29.71 835 24.66 8.3 47 77 4.6 40.4
06:05 1006 29.71 835 24.66 8.4 47 78 4.7 40.4
06:10 1006 29.71 835 24.66 8.2 46.8 78 4.6 40.2
06:15 1006 29.71 835 24.66 8.2 46.7 78 4.5 40.1
06:20 1006 29.71 835 24.66 8.1 46.5 79 4.6 40.3
06:25 1006 29.71 835 24.66 7.6 45.6 80 4.3 39.7
06:30 1006 29.71 835 24.66 7.3 45.2 81 4.3 39.8
06:35 1006 29.71 835 24.66 7.5 45.6 80 4.2 39.6
06:40 1006 29.71 835 24.66 7.4 45.3 78 3.9 39
06:45 1006 29.71 835 24.66 7.2 44.9 79 3.7 38.7
06:50 1006 29.71 835 24.66 7.1 44.7 80 3.9 39
06:55 1006 29.71 835 24.66 7.1 44.8 80 3.9 39
07:00 1006 29.71 835 24.66 7.2 44.9 80 3.9 39.1
07:05 1006 29.71 835 24.66 7.1 44.7 80 3.8 38.9
07:10 1006 29.71 835 24.66 7 44.6 80 3.8 38.8
07:15 1006 29.71 835 24.66 7.1 44.9 80 3.9 38.9
07:20 1006 29.71 835 24.66 7.3 45.2 80 4.1 39.5
07:25 1006 29.71 835 24.66 7.7 45.8 79 4.3 39.7
07:30 1006 29.71 835 24.66 7.8 46.1 78 4.2 39.6
07:35 1006 29.71 835 24.66 7.6 45.7 79 4.2 39.5
07:40 1006 29.71 835 24.66 7.9 46.2 77 4.2 39.5
07:45 1006 29.71 835 24.66 8.1 46.6 77 4.3 39.7
07:50 1006 29.71 835 24.66 8.5 47.3 75 4.4 39.9
07:55 1006 29.71 835 24.66 9.2 48.5 74 4.7 40.5
08:00 1006 29.71 835 24.66 9.6 49.2 71 4.7 40.4
08:05 1006 29.71 835 24.66 9.3 48.8 73 4.7 40.5
08:10 1006 29.71 835 24.66 9.2 48.5 73 4.6 40.3
08:15 1006 29.71 835 24.66 9.2 48.5 74 4.7 40.4
08:20 1006 29.71 835 24.66 9.2 48.5 73 4.7 40.5
08:25 1006 29.71 835 24.66 9.3 48.7 73 4.7 40.4
08:30 1006 29.71 835 24.66 9.7 49.5 71 4.6 40.3
08:35 1006 29.71 835 24.66 10.5 50.8 68 4.8 40.7
08:40 1006 29.71 835 24.66 10.8 51.4 66 4.8 40.7
08:45 1006 29.71 835 24.66 10.9 51.7 66 4.9 40.8
08:50 1006 29.71 835 24.66 10.5 50.9 70 5.3 41.5
08:55 1006 29.71 835 24.66 10.2 50.4 70 5.1 41.1
09:00 1006 29.71 835 24.66 10.1 50.2 70 5 40.9
09:05 1006 29.71 835 24.66 10.2 50.3 69 4.8 40.7
09:10 1006 29.71 835 24.66 10.7 51.3 67 4.9 40.7
09:15 1006 29.71 835 24.66 11 51.9 65 4.7 40.5
09:20 1006 29.71 835 24.66 11.6 52.8 63 4.9 40.8
09:25 1006 29.71 835 24.66 12.2 54 60 4.7 40.5
09:30 1006 29.71 835 24.66 12.3 54.2 60 4.8 40.7
09:35 1006 29.71 835 24.66 12.3 54.1 59 4.5 40.1
09:40 1006 29.71 835 24.66 12.3 54.1 60 4.8 40.7
09:45 1006 29.71 835 24.66 12.6 54.7 57 4.3 39.8
09:50 1006 29.71 835 24.66 12.8 55 58 4.8 40.6
09:55 1006 29.71 835 24.66 12.6 54.7 58 4.6 40.3
10:00 1006 29.71 835 24.66 12.7 54.8 58 4.8 40.6
10:05 1006 29.71 835 24.66 12.7 54.9 58 4.6 40.4
10:10 1006 29.71 835 24.66 12.5 54.5 59 4.8 40.7
10:15 1006 29.71 835 24.66 12.3 54.1 58 4.4 39.8
10:20 1006 29.71 835 24.66 12.5 54.5 58 4.5 40.1
10:25 1006 29.71 835 24.66 13.2 55.7 55 4.3 39.8
10:30 1006 29.71 835 24.66 13.5 56.3 54 4.4 39.9
10:35 1006 29.71 835 24.66 13.7 56.7 51 3.8 38.8
10:40 1006 29.71 835 24.66 14.5 58 49 4 39.3
10:45 1006 29.71 835 24.66 14.4 57.9 49 4 39.3
10:50 1006 29.71 835 24.66 14.6 58.3 50 4.3 39.7
10:55 1006 29.71 835 24.66 14.8 58.6 50 4.4 40
11:00 1006 29.71 835 24.66 14.4 57.9 49 3.9 39.1
11:05 1006 29.71 835 24.66 15 59.1 46 3.5 38.3
11:10 1006 29.71 835 24.66 15.9 60.5 46 4.3 39.8
11:15 1006 29.71 835 24.66 15.5 59.9 49 4.9 40.8
11:20 1006 29.71 835 24.66 15.2 59.3 46 3.8 38.9
11:25 1006 29.71 835 24.66 16.3 61.4 45 4.3 39.8
11:30 1006 29.71 835 24.66 16.8 62.3 43 4.3 39.7
11:35 1006 29.71 835 24.66 16.8 62.2 44 4.5 40.2
11:40 1006 29.71 835 24.66 17.5 63.5 41 4.4 39.9
11:45 1006 29.71 835 24.66 17.4 63.3 44 5.1 41.1
11:50 1006 29.71 835 24.66 16.1 61 43 3.7 38.7
11:55 1005 29.68 835 24.66 16.5 61.6 46 5 40.9
12:00 1005 29.68 834 24.63 16.8 62.2 41 3.7 38.7
12:05 1005 29.68 834 24.63 17.3 63.1 45 5.5 41.9
12:10 1005 29.68 834 24.63 16.5 61.8 44 4.3 39.7
12:15 1005 29.68 834 24.63 16.8 62.3 43 4.3 39.7
12:20 1005 29.68 834 24.63 17.5 63.5 41 4.3 39.8
12:25 1005 29.68 834 24.63 17.7 63.8 42 4.7 40.4
12:30 1005 29.68 834 24.63 17.8 64 41 4.6 40.3
12:35 1005 29.68 834 24.63 18.2 64.7 39 4.1 39.4
12:40 1005 29.68 834 24.63 17.4 63.4 44 5.2 41.4
12:45 1005 29.68 834 24.63 17.8 64.1 41 4.4 39.9
12:50 1005 29.68 834 24.63 18.5 65.2 41 5.2 41.3
12:55 1005 29.68 834 24.63 18.1 64.6 41 4.8 40.6
13:00 1005 29.68 834 24.63 18.3 64.9 42 5.3 41.5
13:05 1004 29.65 834 24.63 17.8 64 40 4.1 39.4
13:10 1004 29.65 834 24.63 18.7 65.7 37 4 39.3
13:15 1004 29.65 834 24.63 19.5 67.1 36 4.3 39.7
13:20 1004 29.65 834 24.63 19.5 67 38 4.8 40.7
13:25 1004 29.65 833 24.6 18.6 65.4 40 4.8 40.7
13:30 1004 29.65 833 24.6 19 66.2 38 4.5 40.2
13:35 1004 29.65 833 24.6 20.2 68.3 35 4.5 40
13:40 1004 29.65 833 24.6 20.4 68.6 35 4.4 39.9
13:45 1004 29.65 833 24.6 19.7 67.4 37 4.8 40.6
13:50 1004 29.65 833 24.6 19.4 66.9 39 5.2 41.4
13:55 1004 29.65 833 24.6 19.4 66.9 37 4.6 40.3
14:00 1004 29.65 833 24.6 19.4 66.9 36 4.2 39.6
14:05 1004 29.65 833 24.6 20.3 68.6 35 4.6 40.3
14:10 1004 29.65 833 24.6 20 67.9 38 5.5 41.8
14:15 1004 29.65 833 24.6 18.2 64.7 41 4.7 40.4
14:20 1004 29.65 833 24.6 19.1 66.3 36 3.7 38.6
14:25 1004 29.65 833 24.6 20.7 69.2 35 5 41
14:30 1003 29.62 833 24.6 20 68 34 3.7 38.7
14:35 1003 29.62 833 24.6 20.4 68.8 35 4.6 40.2
14:40 1003 29.62 833 24.6 19.5 67.1 36 4.1 39.4
14:45 1003 29.62 833 24.6 19.5 67.1 37 4.6 40.3
14:50 1003 29.62 833 24.6 19.1 66.5 35 3.6 38.4
14:55 1003 29.62 832 24.57 19.8 67.6 36 4.4 40
15:00 1003 29.62 832 24.57 20.3 68.5 34 3.9 39
15:05 1003 29.62 832 24.57 19.2 66.6 36 4.1 39.3
15:10 1003 29.62 832 24.57 18.5 65.3 37 3.5 38.3
15:15 1003 29.62 832 24.57 18.6 65.4 35 3 37.4
15:20 1003 29.62 832 24.57 18.9 66 35 3.2 37.8
15:25 1003 29.62 832 24.57 18.8 65.8 35 3.1 37.5
15:30 1003 29.62 832 24.57 18.9 66 33 2.4 36.2
15:35 1003 29.62 832 24.57 19.1 66.4 33 2.7 36.9
15:40 1003 29.62 832 24.57 19.1 66.5 37 4.3 39.7
15:45 1003 29.62 832 24.57 18.4 65.1 37 3.6 38.5
15:50 1003 29.62 832 24.57 17.6 63.8 41 4.4 39.8
15:55 1003 29.62 832 24.57 17.1 62.7 39 3.3 37.9
16:00 1003 29.62 832 24.57 17.2 63 40 3.6 38.5
16:05 1003 29.62 832 24.57 17.2 63 40 3.7 38.7
16:10 1003 29.62 832 24.57 16.8 62.2 46 5.2 41.4
16:15 1003 29.62 832 24.57 16.4 61.6 45 4.7 40.5
16:20 1003 29.62 832 24.57 16.1 61 49 5.4 41.8
16:25 1003 29.62 832 24.57 16 60.9 50 5.7 42.2
16:30 1003 29.62 832 24.57 15.9 60.6 52 6 42.9
16:35 1003 29.62 832 24.57 16.4 61.4 48 5.4 41.8
16:40 1003 29.62 832 24.57 16.6 61.8 51 6.4 43.5
16:45 1003 29.62 833 24.6 15.7 60.2 49 5 41
16:50 1004 29.65 833 24.6 14.3 57.7 58 6.1 42.9
16:55 1004 29.65 833 24.6 12.9 55.2 62 5.9 42.7
17:00 1004 29.65 833 24.6 12.5 54.4 66 6.3 43.4
17:05 1004 29.65 833 24.6 12.3 54.2 68 6.6 43.9
17:10 1004 29.65 833 24.6 12.4 54.4 66 6.2 43.1
17:15 1004 29.65 833 24.6 12.7 54.8 67 6.8 44.2
17:20 1004 29.65 833 24.6 12.9 55.2 64 6.3 43.3
17:25 1004 29.65 833 24.6 13 55.4 59 5.1 41.2
17:30 1004 29.65 833 24.6 13.3 55.9 56 4.7 40.5
17:35 1004 29.65 833 24.6 13.6 56.6 56 5.2 41.3
17:40 1004 29.65 834 24.63 13.7 56.7 55 5 41
17:45 1005 29.68 834 24.63 13.7 56.6 57 5.4 41.7
17:50 1004 29.65 834 24.63 12.7 54.9 62 5.8 42.4
17:55 1004 29.65 834 24.63 12.2 53.9 63 5.4 41.7
18:00 1004 29.65 833 24.6 11.9 53.5 60 4.6 40.2
18:05 1004 29.65 834 24.63 12.4 54.3 59 4.7 40.5
18:10 1004 29.65 833 24.6 11.9 53.5 65 5.6 42.1
18:15 1004 29.65 833 24.6 11.9 53.4 62 4.9 40.9
18:20 1004 29.65 833 24.6 12.5 54.6 57 4.3 39.7
18:25 1004 29.65 833 24.6 13.1 55.5 55 4.4 39.9
18:30 1004 29.65 833 24.6 13.4 56 54 4.4 39.9
18:35 1004 29.65 833 24.6 13.5 56.3 53 4.2 39.5
18:40 1004 29.65 833 24.6 13.4 56.1 56 4.8 40.6
18:45 1004 29.65 833 24.6 13.2 55.7 53 4 39.2
18:50 1004 29.65 833 24.6 13.6 56.4 50 3.4 38.2
18:55 1004 29.65 833 24.6 13.7 56.6 54 4.6 40.3
19:00 1004 29.65 834 24.63 13.2 55.7 56 4.7 40.5
19:05 1004 29.65 834 24.63 12.8 55 60 5.2 41.3
19:10 1004 29.65 834 24.63 12.5 54.4 66 6.3 43.3
19:15 1004 29.65 834 24.63 12.3 54.1 67 6.4 43.4
19:20 1004 29.65 834 24.63 12 53.6 69 6.6 43.8
19:25 1004 29.65 834 24.63 11.9 53.4 68 6.2 43.1
19:30 1005 29.68 834 24.63 11.9 53.4 67 6.1 43
19:35 1005 29.68 834 24.63 11.9 53.3 68 6.1 43
19:40 1005 29.68 834 24.63 11.9 53.3 68 6.1 43.1
19:45 1005 29.68 834 24.63 12 53.5 68 6.2 43.2
19:50 1005 29.68 834 24.63 12.1 53.8 65 5.8 42.4
19:55 1005 29.68 834 24.63 12.3 54.1 64 5.6 42.1
20:00 1005 29.68 834 24.63 12.5 54.5 64 5.9 42.6
20:05 1005 29.68 834 24.63 12.5 54.5 65 6.3 43.3
20:10 1005 29.68 834 24.63 12.5 54.4 65 6.1 42.9
20:15 1005 29.68 835 24.66 12.6 54.6 64 5.9 42.6
20:20 1006 29.71 835 24.66 12.6 54.6 67 6.8 44.2
20:25 1006 29.71 835 24.66 12 53.5 72 7.1 44.8
20:30 1006 29.71 835 24.66 11.4 52.6 73 6.8 44.3
20:35 1006 29.71 835 24.66 11.2 52.1 75 6.9 44.4
20:40 1006 29.71 835 24.66 11 51.9 75 6.9 44.4
20:45 1006 29.71 835 24.66 10.8 51.5 78 7.2 44.9
20:50 1006 29.71 835 24.66 10.7 51.3 77 6.9 44.4
20:55 1006 29.71 836 24.69 10.6 51.1 78 6.9 44.3
21:00 1006 29.71 836 24.69 10.5 50.9 78 6.8 44.3
21:05 1006 29.71 836 24.69 10.3 50.6 79 6.9 44.4
21:10 1007 29.74 836 24.69 10.3 50.5 78 6.7 44.1
21:15 1007 29.74 836 24.69 10.2 50.4 80 6.9 44.4
21:20 1007 29.74 836 24.69 10 49.9 79 6.6 43.8
21:25 1007 29.74 836 24.69 9.9 49.8 82 6.9 44.5
21:30 1007 29.74 836 24.69 9.7 49.4 81 6.6 43.9
21:35 1007 29.74 836 24.69 9.7 49.5 79 6.3 43.3
21:40 1007 29.74 836 24.69 9.8 49.7 81 6.7 44
21:45 1007 29.74 836 24.69 9.7 49.5 81 6.7 44.1
21:50 1007 29.74 836 24.69 9.7 49.4 82 6.7 44.1
21:55 1007 29.74 836 24.69 9.5 49.2 81 6.5 43.7
22:00 1007 29.74 836 24.69 9.6 49.3 81 6.6 43.8
22:05 1007 29.74 836 24.69 9.9 49.8 80 6.5 43.8
22:10 1007 29.74 836 24.69 10.1 50.1 81 7 44.6
22:15 1007 29.74 836 24.69 10.1 50.2 78 6.5 43.7
22:20 1007 29.74 836 24.69 10 50.1 81 6.9 44.5
22:25 1007 29.74 836 24.69 9.9 49.7 82 6.9 44.3
22:30 1007 29.74 836 24.69 9.5 49.1 83 6.7 44.1
22:35 1007 29.74 837 24.72 9.3 48.7 85 6.8 44.3
22:40 1007 29.74 837 24.72 9.2 48.5 84 6.7 44
22:45 1007 29.74 837 24.72 9 48.2 85 6.7 44
22:50 1007 29.74 837 24.72 9 48.1 85 6.6 43.9
22:55 1007 29.74 837 24.72 8.9 48 86 6.6 43.9
23:00 1007 29.74 837 24.72 8.8 47.9 85 6.5 43.7
23:05 1008 29.77 837 24.72 8.9 47.9 85 6.5 43.8
23:10 1008 29.77 837 24.72 8.8 47.9 85 6.4 43.5
23:15 1008 29.77 837 24.72 8.8 47.8 85 6.4 43.5
23:20 1008 29.77 837 24.72 8.7 47.7 84 6.1 43
23:25 1008 29.77 837 24.72 8.7 47.6 83 6 42.8
23:30 1008 29.77 837 24.72 8.6 47.6 83 6 42.7
23:35 1008 29.77 837 24.72 8.6 47.4 83 5.9 42.7
23:40 1008 29.77 837 24.72 8.5 47.4 83 5.8 42.4
23:45 1008 29.77 837 24.72 8.4 47.2 84 5.8 42.5
23:50 1008 29.77 837 24.72 8.4 47.1 83 5.7 42.3
23:55 1008 29.77 837 24.72 8.3 47 84 5.8 42.5
24:00 1008 29.77 837 24.72 8.1 46.7 85 5.7 42.3